createdAt,value
2022-11-01T00:02:05.132Z,13.50
2022-11-01T00:04:33.380Z,13.50
2022-11-01T00:07:02.999Z,13.60
2022-11-01T00:09:31.054Z,13.60
2022-11-01T00:12:00.162Z,13.60
2022-11-01T00:14:28.250Z,13.50
2022-11-01T00:16:56.705Z,13.50
2022-11-01T00:19:24.858Z,13.50
2022-11-01T00:21:52.876Z,13.50
2022-11-01T00:24:22.372Z,13.50
2022-11-01T00:26:50.458Z,13.50
2022-11-01T00:29:18.523Z,13.50
2022-11-01T00:31:46.668Z,13.50
2022-11-01T00:34:14.710Z,13.50
2022-11-01T00:36:42.830Z,13.50
2022-11-01T00:39:14.629Z,13.50
2022-11-01T00:41:44.132Z,13.50
2022-11-01T00:44:12.280Z,13.50
2022-11-01T00:46:40.367Z,13.40
2022-11-01T00:49:08.408Z,13.40
2022-11-01T00:51:36.426Z,13.40
2022-11-01T00:54:04.790Z,13.40
2022-11-01T00:56:32.917Z,13.40
2022-11-01T00:59:02.300Z,13.40
2022-11-01T01:01:32.330Z,13.40
2022-11-01T01:04:00.864Z,13.40
2022-11-01T01:06:28.995Z,13.40
2022-11-01T01:09:00.275Z,13.40
2022-11-01T01:11:28.528Z,13.40
2022-11-01T01:13:56.578Z,13.40
2022-11-01T01:16:26.205Z,13.40
2022-11-01T01:18:54.263Z,13.40
2022-11-01T01:21:22.291Z,13.30
2022-11-01T01:23:51.446Z,13.30
2022-11-01T01:26:19.700Z,13.30
2022-11-01T01:28:47.925Z,13.30
2022-11-01T01:31:15.987Z,13.30
2022-11-01T01:33:45.355Z,13.30
2022-11-01T01:36:14.365Z,13.30
2022-11-01T01:38:42.389Z,13.30
2022-11-01T01:41:27.824Z,13.30
2022-11-01T01:43:55.975Z,13.30
2022-11-01T01:46:24.007Z,13.30
2022-11-01T01:48:57.454Z,13.30
2022-11-01T01:51:28.747Z,13.30
2022-11-01T01:53:58.244Z,13.30
2022-11-01T01:56:31.024Z,13.30
2022-11-01T01:59:03.481Z,13.30
2022-11-01T02:01:32.302Z,13.30
2022-11-01T02:04:04.704Z,13.30
2022-11-01T02:06:34.443Z,13.30
2022-11-01T02:09:05.366Z,13.30
2022-11-01T02:11:33.559Z,13.30
2022-11-01T02:14:02.685Z,13.30
2022-11-01T02:16:41.390Z,13.30
2022-11-01T02:19:50.210Z,13.30
2022-11-01T02:22:21.851Z,13.30
2022-11-01T02:25:21.874Z,13.30
2022-11-01T02:28:08.445Z,13.30
2022-11-01T02:30:44.311Z,13.30
2022-11-01T02:33:28.587Z,13.30
2022-11-01T02:36:03.540Z,13.30
2022-11-01T02:38:39.857Z,13.30
2022-11-01T02:41:13.094Z,13.30
2022-11-01T02:43:49.168Z,13.30
2022-11-01T02:46:37.947Z,13.30
2022-11-01T02:49:08.981Z,13.30
2022-11-01T02:51:38.675Z,13.30
2022-11-01T02:54:07.819Z,13.30
2022-11-01T02:56:36.468Z,13.30
2022-11-01T02:59:05.312Z,13.30
2022-11-01T03:01:36.085Z,13.20
2022-11-01T03:04:04.979Z,13.30
2022-11-01T03:06:38.247Z,13.30
2022-11-01T03:09:10.089Z,13.30
2022-11-01T03:11:52.876Z,13.30
2022-11-01T03:14:27.421Z,13.30
2022-11-01T03:17:00.589Z,13.30
2022-11-01T03:19:41.941Z,13.30
2022-11-01T03:22:17.170Z,13.30
2022-11-01T03:24:50.067Z,13.30
2022-11-01T03:27:25.341Z,13.30
2022-11-01T03:29:59.992Z,13.30
2022-11-01T03:32:33.038Z,13.30
2022-11-01T03:35:04.324Z,13.30
2022-11-01T03:37:35.783Z,13.30
2022-11-01T03:40:07.709Z,13.30
2022-11-01T03:42:37.487Z,13.30
2022-11-01T03:45:10.512Z,13.30
2022-11-01T03:47:39.091Z,13.30
2022-11-01T03:50:15.817Z,13.30
2022-11-01T03:52:45.845Z,13.30
2022-11-01T03:55:20.277Z,13.30
2022-11-01T03:57:48.875Z,13.30
2022-11-01T04:00:19.637Z,13.30
2022-11-01T04:02:48.073Z,13.30
2022-11-01T04:05:16.731Z,13.30
2022-11-01T04:07:46.899Z,13.30
2022-11-01T04:10:15.523Z,13.30
2022-11-01T04:12:46.495Z,13.30
2022-11-01T04:15:32.549Z,13.30
2022-11-01T04:18:23.447Z,13.30
2022-11-01T04:20:52.827Z,13.30
2022-11-01T04:23:22.544Z,13.40
2022-11-01T04:25:51.105Z,13.40
2022-11-01T04:28:19.415Z,13.40
2022-11-01T04:30:47.475Z,13.40
2022-11-01T04:33:15.519Z,13.40
2022-11-01T04:35:43.579Z,13.40
2022-11-01T04:38:12.860Z,13.40
2022-11-01T04:40:43.360Z,13.40
2022-11-01T04:43:12.166Z,13.40
2022-11-01T04:45:40.796Z,13.40
2022-11-01T04:48:12.577Z,13.40
2022-11-01T04:50:41.612Z,13.50
2022-11-01T04:53:10.064Z,13.50
2022-11-01T04:55:38.348Z,13.50
2022-11-01T04:58:08.598Z,13.50
2022-11-01T05:00:36.752Z,13.60
2022-11-01T05:03:06.865Z,13.50
2022-11-01T05:05:36.396Z,13.50
2022-11-01T05:08:07.840Z,13.60
2022-11-01T05:10:37.882Z,13.50
2022-11-01T05:13:07.570Z,13.50
2022-11-01T05:15:39.951Z,13.60
2022-11-01T05:18:11.986Z,13.60
2022-11-01T05:20:40.141Z,13.60
2022-11-01T05:23:08.246Z,13.60
2022-11-01T05:25:38.196Z,13.60
2022-11-01T05:28:09.700Z,13.60
2022-11-01T05:30:38.516Z,13.60
2022-11-01T05:33:07.844Z,13.60
2022-11-01T05:35:36.961Z,13.60
2022-11-01T05:38:06.197Z,13.60
2022-11-01T05:40:34.771Z,13.50
2022-11-01T05:43:03.270Z,13.50
2022-11-01T05:45:33.046Z,13.50
2022-11-01T05:48:03.914Z,13.50
2022-11-01T05:50:32.364Z,13.50
2022-11-01T05:53:09.019Z,13.50
2022-11-01T05:55:37.691Z,13.50
2022-11-01T05:58:06.608Z,13.50
2022-11-01T06:00:36.618Z,13.50
2022-11-01T06:03:05.661Z,13.50
2022-11-01T06:05:34.702Z,13.50
2022-11-01T06:08:04.140Z,13.40
2022-11-01T06:10:32.958Z,13.40
2022-11-01T06:13:01.650Z,13.50
2022-11-01T06:15:32.179Z,13.40
2022-11-01T06:18:04.323Z,13.40
2022-11-01T06:20:34.001Z,13.40
2022-11-01T06:23:02.082Z,13.40
2022-11-01T06:25:30.231Z,13.40
2022-11-01T06:27:58.206Z,13.40
2022-11-01T06:30:26.277Z,13.40
2022-11-01T06:32:59.453Z,13.40
2022-11-01T06:35:29.771Z,13.40
2022-11-01T06:38:03.880Z,13.40
2022-11-01T06:40:32.480Z,13.40
2022-11-01T06:43:02.228Z,13.50
2022-11-01T06:45:31.025Z,13.50
2022-11-01T06:48:00.072Z,13.50
2022-11-01T06:50:29.736Z,13.50
2022-11-01T06:52:58.580Z,13.60
2022-11-01T06:55:27.535Z,13.60
2022-11-01T06:57:56.230Z,13.60
2022-11-01T07:00:25.043Z,13.70
2022-11-01T07:02:59.262Z,13.70
2022-11-01T07:05:30.283Z,13.80
2022-11-01T07:08:03.288Z,13.80
2022-11-01T07:10:31.762Z,13.90
2022-11-01T07:13:00.201Z,13.90
2022-11-01T07:15:29.122Z,13.90
2022-11-01T07:17:57.723Z,14.00
2022-11-01T07:20:26.591Z,14.00
2022-11-01T07:23:00.513Z,14.10
2022-11-01T07:25:30.753Z,14.10
2022-11-01T07:27:59.305Z,14.10
2022-11-01T07:30:27.861Z,14.20
2022-11-01T07:32:58.084Z,14.20
2022-11-01T07:35:27.045Z,14.30
2022-11-01T07:37:59.331Z,14.30
2022-11-01T07:40:29.776Z,14.30
2022-11-01T07:42:59.968Z,14.40
2022-11-01T07:45:29.531Z,14.40
2022-11-01T07:48:02.551Z,14.50
2022-11-01T07:50:31.450Z,14.50
2022-11-01T07:53:03.167Z,14.50
2022-11-01T07:55:32.777Z,14.60
2022-11-01T07:58:01.346Z,14.60
2022-11-01T08:00:30.016Z,14.70
2022-11-01T08:03:02.527Z,14.70
2022-11-01T08:05:31.210Z,14.80
2022-11-01T08:07:59.902Z,14.80
2022-11-01T08:10:29.344Z,14.90
2022-11-01T08:13:06.064Z,14.90
2022-11-01T08:15:34.695Z,14.90
2022-11-01T08:18:03.209Z,15.00
2022-11-01T08:20:31.916Z,15.00
2022-11-01T08:23:00.269Z,15.10
2022-11-01T08:25:31.274Z,15.10
2022-11-01T08:28:03.762Z,15.10
2022-11-01T08:30:31.974Z,15.20
2022-11-01T08:33:00.961Z,15.20
2022-11-01T08:35:29.875Z,15.30
2022-11-01T08:37:59.136Z,15.30
2022-11-01T08:40:28.556Z,15.40
2022-11-01T08:42:56.877Z,15.40
2022-11-01T08:45:26.790Z,15.50
2022-11-01T08:47:59.156Z,15.50
2022-11-01T08:50:27.872Z,15.50
2022-11-01T08:52:55.978Z,15.50
2022-11-01T08:55:24.357Z,15.50
2022-11-01T08:57:52.404Z,15.50
2022-11-01T09:00:21.337Z,15.50
2022-11-01T09:02:50.916Z,15.50
2022-11-01T09:05:19.467Z,15.50
2022-11-01T09:07:47.563Z,15.50
2022-11-01T09:10:16.492Z,15.50
2022-11-01T09:12:44.773Z,15.50
2022-11-01T09:15:12.990Z,15.60
2022-11-01T09:17:41.051Z,15.60
2022-11-01T09:20:11.210Z,15.60
2022-11-01T09:22:39.283Z,15.60
2022-11-01T09:25:08.217Z,15.70
2022-11-01T09:27:36.246Z,15.70
2022-11-01T09:30:04.730Z,15.70
2022-11-01T09:32:33.177Z,15.80
2022-11-01T09:35:01.240Z,15.80
2022-11-01T09:37:30.602Z,15.80
2022-11-01T09:39:58.741Z,15.80
2022-11-01T09:42:32.450Z,15.80
2022-11-01T09:45:03.765Z,15.90
2022-11-01T09:47:33.908Z,15.90
2022-11-01T09:50:06.775Z,15.90
2022-11-01T09:52:36.251Z,15.90
2022-11-01T09:55:04.383Z,16.00
2022-11-01T09:57:36.321Z,16.00
2022-11-01T10:00:13.304Z,16.00
2022-11-01T10:03:16.294Z,16.00
2022-11-01T10:05:52.418Z,16.10
2022-11-01T10:08:45.461Z,16.10
2022-11-01T10:11:39.911Z,16.10
2022-11-01T10:14:19.991Z,16.10
2022-11-01T10:16:58.791Z,16.20
2022-11-01T10:19:30.783Z,16.20
2022-11-01T10:22:05.435Z,16.20
2022-11-01T10:24:40.549Z,16.20
2022-11-01T10:27:19.848Z,16.30
2022-11-01T10:29:55.847Z,16.30
2022-11-01T10:32:32.382Z,16.30
2022-11-01T10:35:04.459Z,16.30
2022-11-01T10:37:43.746Z,16.40
2022-11-01T10:40:26.934Z,16.40
2022-11-01T10:42:55.238Z,16.40
2022-11-01T10:45:24.847Z,16.40
2022-11-01T10:47:56.749Z,16.40
2022-11-01T10:50:29.040Z,16.50
2022-11-01T10:53:00.645Z,16.50
2022-11-01T10:55:34.260Z,16.50
2022-11-01T10:58:06.964Z,16.50
2022-11-01T11:00:41.773Z,16.60
2022-11-01T11:03:18.938Z,16.60
2022-11-01T11:05:51.660Z,16.60
2022-11-01T11:08:22.826Z,16.60
2022-11-01T11:10:52.927Z,16.60
2022-11-01T11:13:22.499Z,16.60
2022-11-01T11:15:53.872Z,16.60
2022-11-01T11:18:26.261Z,16.60
2022-11-01T11:20:57.399Z,16.70
2022-11-01T11:23:29.576Z,16.70
2022-11-01T11:26:04.303Z,16.70
2022-11-01T11:28:35.426Z,16.80
2022-11-01T11:31:16.997Z,16.80
2022-11-01T11:33:51.300Z,16.80
2022-11-01T11:36:27.845Z,16.80
2022-11-01T11:38:56.610Z,16.80
2022-11-01T11:41:31.444Z,16.80
2022-11-01T11:44:00.088Z,16.90
2022-11-01T11:46:28.281Z,16.90
2022-11-01T11:49:01.024Z,16.90
2022-11-01T11:51:30.796Z,16.90
2022-11-01T11:54:22.722Z,16.90
2022-11-01T11:57:08.692Z,16.90
2022-11-01T11:59:37.071Z,16.90
2022-11-01T12:02:09.796Z,16.90
2022-11-01T12:04:46.391Z,16.90
2022-11-01T12:07:32.161Z,16.90
2022-11-01T12:10:03.184Z,16.90
2022-11-01T12:12:34.752Z,16.90
2022-11-01T12:15:03.988Z,17.00
2022-11-01T12:17:37.631Z,17.00
2022-11-01T12:20:15.505Z,17.00
2022-11-01T12:22:51.473Z,17.10
2022-11-01T12:25:22.875Z,17.10
2022-11-01T12:28:00.572Z,17.10
2022-11-01T12:30:33.031Z,17.10
2022-11-01T12:33:05.347Z,17.10
2022-11-01T12:35:37.835Z,17.10
2022-11-01T12:38:33.345Z,17.20
2022-11-01T12:41:14.782Z,17.20
2022-11-01T12:43:59.573Z,17.20
2022-11-01T12:46:36.816Z,17.20
2022-11-01T12:49:10.972Z,17.30
2022-11-01T12:51:43.408Z,17.30
2022-11-01T12:54:16.805Z,17.30
2022-11-01T12:56:45.272Z,17.40
2022-11-01T12:59:23.011Z,17.40
2022-11-01T13:02:00.599Z,17.50
2022-11-01T13:04:35.114Z,17.50
2022-11-01T13:07:23.358Z,17.50
2022-11-01T13:10:02.893Z,17.50
2022-11-01T13:12:40.039Z,17.50
2022-11-01T13:15:21.800Z,17.60
2022-11-01T13:17:59.247Z,17.60
2022-11-01T13:20:36.355Z,17.70
2022-11-01T13:23:15.225Z,17.70
2022-11-01T13:25:52.075Z,17.70
2022-11-01T13:28:32.665Z,17.70
2022-11-01T13:31:09.108Z,17.60
2022-11-01T13:33:46.325Z,17.60
2022-11-01T13:36:19.467Z,17.50
2022-11-01T13:38:54.495Z,17.50
2022-11-01T13:41:31.860Z,17.60
2022-11-01T13:44:04.960Z,17.60
2022-11-01T13:47:00.594Z,17.60
2022-11-01T13:50:10.332Z,17.70
2022-11-01T13:52:46.052Z,17.70
2022-11-01T13:55:22.932Z,17.70
2022-11-01T13:57:51.121Z,17.70
2022-11-01T14:00:44.247Z,17.70
2022-11-01T14:03:29.479Z,17.70
2022-11-01T14:06:31.065Z,17.60
2022-11-01T14:09:31.036Z,17.60
2022-11-01T14:12:11.408Z,17.60
2022-11-01T14:14:53.489Z,17.60
2022-11-01T14:18:03.676Z,17.50
2022-11-01T14:20:52.762Z,17.50
2022-11-01T14:24:01.748Z,17.50
2022-11-01T14:26:47.519Z,17.50
2022-11-01T14:29:16.045Z,17.40
2022-11-01T14:31:49.433Z,17.40
2022-11-01T14:34:25.995Z,17.40
2022-11-01T14:36:58.912Z,17.30
2022-11-01T14:39:35.254Z,17.30
2022-11-01T14:42:08.396Z,17.20
2022-11-01T14:44:40.475Z,17.20
2022-11-01T14:47:28.583Z,17.10
2022-11-01T14:50:00.023Z,17.10
2022-11-01T14:52:36.180Z,17.10
2022-11-01T14:55:13.893Z,17.00
2022-11-01T14:57:42.235Z,17.00
2022-11-01T15:00:28.881Z,16.90
2022-11-01T15:05:32.246Z,16.90
2022-11-01T15:08:02.228Z,16.80
2022-11-01T15:10:42.527Z,16.80
2022-11-01T15:13:16.549Z,16.80
2022-11-01T15:15:51.711Z,16.70
2022-11-01T15:18:22.114Z,16.70
2022-11-01T15:20:54.956Z,16.60
2022-11-01T15:23:30.870Z,16.60
2022-11-01T15:26:05.599Z,16.60
2022-11-01T15:28:38.743Z,16.50
2022-11-01T15:31:07.627Z,16.50
2022-11-01T15:33:35.933Z,16.40
2022-11-01T15:36:06.694Z,16.40
2022-11-01T15:38:49.336Z,16.30
2022-11-01T15:41:22.017Z,16.30
2022-11-01T15:43:54.245Z,16.20
2022-11-01T15:46:23.902Z,16.20
2022-11-01T15:48:54.485Z,16.10
2022-11-01T15:51:25.365Z,16.10
2022-11-01T15:54:01.977Z,16.10
2022-11-01T15:56:42.347Z,16.00
2022-11-01T15:59:25.263Z,16.00
2022-11-01T16:01:55.051Z,15.90
2022-11-01T16:04:25.787Z,15.80
2022-11-01T16:06:58.090Z,15.80
2022-11-01T16:09:37.345Z,15.80
2022-11-01T16:12:09.325Z,15.70
2022-11-01T16:14:38.217Z,15.70
2022-11-01T16:17:09.573Z,15.60
2022-11-01T16:19:42.513Z,15.60
2022-11-01T16:22:30.135Z,15.60
2022-11-01T16:25:22.666Z,15.50
2022-11-01T16:28:03.125Z,15.40
2022-11-01T16:30:37.652Z,15.40
2022-11-01T16:33:16.672Z,15.40
2022-11-01T16:35:47.395Z,15.30
2022-11-01T16:38:30.424Z,15.30
2022-11-01T16:41:01.264Z,15.20
2022-11-01T16:43:31.695Z,15.20
2022-11-01T16:46:00.488Z,15.20
2022-11-01T16:48:30.393Z,15.10
2022-11-01T16:50:59.840Z,15.10
2022-11-01T16:53:30.307Z,15.00
2022-11-01T16:56:34.515Z,15.00
2022-11-01T16:58:57.222Z,15.00
2022-11-01T17:01:34.221Z,14.90
2022-11-01T17:04:04.295Z,14.80
2022-11-01T17:06:36.188Z,14.80
2022-11-01T17:09:11.626Z,14.80
2022-11-01T17:11:43.924Z,14.70
2022-11-01T17:14:14.599Z,14.70
2022-11-01T17:16:44.693Z,14.60
2022-11-01T17:19:20.776Z,14.60
2022-11-01T17:21:50.845Z,14.50
2022-11-01T17:24:22.427Z,14.50
2022-11-01T17:26:53.185Z,14.50
2022-11-01T17:29:21.620Z,14.40
2022-11-01T17:31:49.976Z,14.40
2022-11-01T17:34:18.115Z,14.40
2022-11-01T17:36:49.501Z,14.30
2022-11-01T17:39:18.002Z,14.30
2022-11-01T17:41:46.097Z,14.30
2022-11-01T17:44:15.659Z,14.30
2022-11-01T17:46:43.888Z,14.30
2022-11-01T17:49:15.587Z,14.30
2022-11-01T17:51:44.315Z,14.20
2022-11-01T17:54:12.722Z,14.20
2022-11-01T17:56:40.775Z,14.20
2022-11-01T17:59:09.147Z,14.20
2022-11-01T18:01:39.597Z,14.10
2022-11-01T18:04:08.342Z,14.10
2022-11-01T18:06:36.519Z,14.10
2022-11-01T18:09:18.269Z,14.00
2022-11-01T18:11:52.176Z,14.00
2022-11-01T18:14:25.423Z,14.00
2022-11-01T18:17:01.577Z,14.00
2022-11-01T18:19:45.733Z,14.00
2022-11-01T18:22:29.084Z,14.00
2022-11-01T18:25:02.584Z,14.00
2022-11-01T18:27:35.223Z,14.00
2022-11-01T18:30:09.836Z,13.90
2022-11-01T18:32:48.618Z,14.00
2022-11-01T18:35:28.937Z,13.90
2022-11-01T18:38:17.002Z,13.90
2022-11-01T18:40:57.137Z,13.90
2022-11-01T18:43:27.359Z,13.90
2022-11-01T18:46:27.182Z,13.90
2022-11-01T18:48:45.676Z,13.90
2022-11-01T18:51:18.230Z,13.90
2022-11-01T18:53:46.267Z,13.80
2022-11-01T18:56:23.014Z,13.80
2022-11-01T18:58:52.670Z,13.90
2022-11-01T19:01:22.318Z,13.80
2022-11-01T19:04:01.088Z,13.80
2022-11-01T19:06:33.714Z,13.80
2022-11-01T19:09:14.190Z,13.80
2022-11-01T19:11:42.371Z,13.80
2022-11-01T19:14:16.998Z,13.80
2022-11-01T19:16:45.572Z,13.80
2022-11-01T19:19:20.777Z,13.80
2022-11-01T19:21:49.165Z,13.80
2022-11-01T19:24:30.760Z,13.70
2022-11-01T19:26:59.819Z,13.70
2022-11-01T19:29:32.197Z,13.70
2022-11-01T19:32:03.217Z,13.70
2022-11-01T19:34:36.622Z,13.70
2022-11-01T19:37:13.967Z,13.70
2022-11-01T19:39:42.079Z,13.60
2022-11-01T19:42:22.116Z,13.60
2022-11-01T19:44:50.172Z,13.60
2022-11-01T19:47:36.626Z,13.60
2022-11-01T19:50:18.355Z,13.60
2022-11-01T19:52:47.682Z,13.60
2022-11-01T19:55:36.057Z,13.50
2022-11-01T19:58:04.886Z,13.50
2022-11-01T20:00:34.732Z,13.50
2022-11-01T20:03:24.900Z,13.40
2022-11-01T20:05:55.266Z,13.50
2022-11-01T20:08:26.032Z,13.40
2022-11-01T20:10:54.125Z,13.40
2022-11-01T20:13:22.799Z,13.40
2022-11-01T20:15:51.140Z,13.40
2022-11-01T20:18:19.219Z,13.40
2022-11-01T20:20:47.337Z,13.40
2022-11-01T20:23:32.101Z,13.40
2022-11-01T20:26:00.282Z,13.40
2022-11-01T20:28:28.357Z,13.40
2022-11-01T20:30:57.071Z,13.40
2022-11-01T20:33:25.744Z,13.50
2022-11-01T20:35:53.793Z,13.50
2022-11-01T20:38:23.252Z,13.50
2022-11-01T20:40:51.324Z,13.50
2022-11-01T20:43:19.366Z,13.50
2022-11-01T20:45:47.476Z,13.50
2022-11-01T20:48:15.557Z,13.50
2022-11-01T20:50:43.606Z,13.50
2022-11-01T20:53:12.571Z,13.50
2022-11-01T20:55:42.082Z,13.50
2022-11-01T20:58:10.279Z,13.50
2022-11-01T21:00:38.676Z,13.50
2022-11-01T21:03:14.561Z,13.50
2022-11-01T21:05:44.448Z,13.50
2022-11-01T21:08:18.637Z,13.50
2022-11-01T21:10:55.575Z,13.50
2022-11-01T21:13:29.913Z,13.50
2022-11-01T21:15:59.703Z,13.50
2022-11-01T21:18:44.073Z,13.50
2022-11-01T21:21:34.439Z,13.50
2022-11-01T21:24:29.385Z,13.40
2022-11-01T21:27:16.756Z,13.40
2022-11-01T21:29:47.211Z,13.40
2022-11-01T21:32:26.930Z,13.40
2022-11-01T21:34:55.457Z,13.40
2022-11-01T21:37:24.839Z,13.30
2022-11-01T21:40:03.197Z,13.30
2022-11-01T21:42:35.508Z,13.30
2022-11-01T21:45:28.318Z,13.30
2022-11-01T21:47:58.881Z,13.30
2022-11-01T21:50:27.025Z,13.30
2022-11-01T21:52:55.109Z,13.30
2022-11-01T21:55:23.356Z,13.20
2022-11-01T21:57:52.794Z,13.20
2022-11-01T22:00:21.119Z,13.20
2022-11-01T22:02:49.163Z,13.20
2022-11-01T22:05:17.217Z,13.20
2022-11-01T22:07:45.955Z,13.20
2022-11-01T22:10:14.035Z,13.20
2022-11-01T22:12:42.072Z,13.20
2022-11-01T22:15:12.245Z,13.10
2022-11-01T22:17:40.259Z,13.10
2022-11-01T22:20:09.109Z,13.10
2022-11-01T22:22:37.236Z,13.10
2022-11-01T22:25:05.853Z,13.10
2022-11-01T22:27:33.883Z,13.10
2022-11-01T22:30:01.955Z,13.10
2022-11-01T22:32:31.387Z,13.10
2022-11-01T22:34:59.467Z,13.10
2022-11-01T22:37:28.095Z,13.10
2022-11-01T22:39:56.370Z,13.10
2022-11-01T22:42:26.428Z,13.00
2022-11-01T22:44:55.091Z,13.00
2022-11-01T22:47:27.492Z,13.00
2022-11-01T22:50:00.583Z,13.00
2022-11-01T22:52:33.114Z,13.00
2022-11-01T22:55:06.822Z,13.00
2022-11-01T22:57:37.322Z,12.90
2022-11-01T23:00:27.077Z,12.90
2022-11-01T23:03:03.222Z,12.90
2022-11-01T23:05:33.114Z,12.90
2022-11-01T23:08:13.937Z,12.90
2022-11-01T23:10:47.530Z,12.90
2022-11-01T23:13:39.372Z,12.80
2022-11-01T23:16:20.992Z,12.80
2022-11-01T23:18:49.317Z,12.80
2022-11-01T23:21:19.539Z,12.80
2022-11-01T23:23:48.283Z,12.80
2022-11-01T23:26:18.683Z,12.80
2022-11-01T23:28:49.733Z,12.80
2022-11-01T23:31:18.509Z,12.70
2022-11-01T23:33:48.069Z,12.70
2022-11-01T23:36:20.829Z,12.70
2022-11-01T23:38:52.066Z,12.70
2022-11-01T23:41:23.388Z,12.70
2022-11-01T23:43:53.157Z,12.70
2022-11-01T23:46:21.495Z,12.70
2022-11-01T23:48:50.104Z,12.70
2022-11-01T23:51:22.275Z,12.70
2022-11-01T23:53:53.300Z,12.70
2022-11-01T23:56:22.471Z,12.70
2022-11-01T23:58:56.938Z,12.70
